Time;durP1;ratioP1;P1;durP2;ratioP2;P2;SDS_P1;SDS_P2;PMS_P1;PMS_P2;Temp;Humidity;BMP_temperature;BMP_pressure;BME280_temperature;BME280_humidity;BME280_pressure;Samples;Min_cycle;Max_cycle;Signal;HPM_P1;HPM_P2
2022/04/29 00:01:57;;;;;;;10.73;7.20;;;11.10;75.60;;;;;;21081847;28;20213;-74
2022/04/29 00:12:00;;;;;;;8.10;6.27;;;11.10;75.70;;;;;;21081325;28;20635;-74
2022/04/29 00:22:02;;;;;;;7.50;5.97;;;10.90;76.80;;;;;;21073763;28;20235;-73
2022/04/29 00:32:04;;;;;;;8.13;6.30;;;10.70;77.60;;;;;;21076618;28;20279;-75
2022/04/29 00:42:12;;;;;;;7.43;6.17;;;10.70;78.30;;;;;;21078744;28;20214;-73
2022/04/29 00:52:17;;;;;;;11.80;6.10;;;10.60;78.10;;;;;;21078468;28;20230;-76
2022/04/29 01:02:19;;;;;;;10.67;7.40;;;10.50;79.30;;;;;;21077980;28;20259;-73
2022/04/29 01:12:24;;;;;;;7.47;6.07;;;10.50;80.00;;;;;;21078795;28;20317;-75
2022/04/29 01:22:26;;;;;;;8.70;6.80;;;10.30;80.30;;;;;;21077911;28;20292;-75
2022/04/29 01:32:30;;;;;;;11.90;6.77;;;10.20;80.80;;;;;;21076946;28;20261;-75
2022/04/29 01:42:32;;;;;;;10.57;7.20;;;10.20;81.30;;;;;;21077106;28;20715;-76
2022/04/29 01:52:34;;;;;;;7.63;6.57;;;10.10;81.20;;;;;;21084261;28;20247;-75
2022/04/29 02:02:36;;;;;;;9.37;7.33;;;9.90;83.50;;;;;;21091555;28;20198;-74
2022/04/29 02:12:38;;;;;;;7.70;6.67;;;10.00;83.10;;;;;;21092538;28;20290;-73
2022/04/29 02:22:40;;;;;;;9.00;6.60;;;9.90;84.20;;;;;;21088688;28;20241;-74
2022/04/29 02:32:42;;;;;;;12.87;7.60;;;9.80;84.60;;;;;;21087254;28;20227;-75
2022/04/29 02:42:44;;;;;;;8.13;7.03;;;9.70;85.30;;;;;;21088556;28;20273;-74
2022/04/29 02:52:45;;;;;;;9.47;6.90;;;9.70;85.50;;;;;;21085984;28;20235;-74
2022/04/29 03:02:47;;;;;;;16.93;7.00;;;9.50;86.50;;;;;;21085854;28;20575;-73
2022/04/29 03:12:49;;;;;;;10.03;7.17;;;9.40;86.90;;;;;;21089931;28;20233;-74
2022/04/29 03:22:51;;;;;;;9.43;6.97;;;9.30;87.50;;;;;;21085213;28;20707;-73
2022/04/29 03:32:54;;;;;;;12.20;7.63;;;9.20;88.50;;;;;;21082831;28;20236;-73
2022/04/29 03:42:57;;;;;;;17.00;7.60;;;9.20;88.80;;;;;;21083776;28;20207;-74
2022/04/29 03:53:01;;;;;;;9.50;7.30;;;9.20;89.40;;;;;;21082633;28;20235;-75
2022/04/29 04:03:06;;;;;;;9.40;7.37;;;9.00;89.10;;;;;;21082066;28;20203;-75
2022/04/29 04:13:13;;;;;;;11.27;7.70;;;9.00;89.80;;;;;;21081415;28;20716;-74
2022/04/29 04:23:15;;;;;;;11.90;7.53;;;9.00;90.10;;;;;;21076710;28;20261;-75
2022/04/29 04:33:17;;;;;;;10.83;7.83;;;9.20;90.30;;;;;;21077390;28;20310;-74
2022/04/29 04:43:20;;;;;;;10.13;7.77;;;9.20;90.30;;;;;;21079056;28;20207;-73
2022/04/29 04:53:22;;;;;;;11.73;8.40;;;9.30;90.20;;;;;;21078133;28;20236;-73
2022/04/29 05:03:24;;;;;;;14.40;8.90;;;9.30;90.40;;;;;;21077235;28;20237;-72
2022/04/29 05:13:25;;;;;;;10.17;8.00;;;9.40;90.50;;;;;;21077321;28;20287;-75
2022/04/29 05:23:27;;;;;;;34.03;10.10;;;9.60;90.40;;;;;;21077317;28;20237;-74
2022/04/29 05:33:31;;;;;;;18.13;9.43;;;9.70;90.60;;;;;;21093455;28;20243;-74
2022/04/29 05:43:32;;;;;;;24.27;9.67;;;9.70;90.60;;;;;;21091334;28;20264;-74
2022/04/29 05:53:34;;;;;;;14.93;9.33;;;9.80;90.70;;;;;;21091373;28;20228;-73
2022/04/29 06:03:37;;;;;;;19.03;10.40;;;10.00;90.20;;;;;;21090483;28;20206;-76
2022/04/29 06:13:38;;;;;;;22.57;9.17;;;10.50;90.40;;;;;;21090431;28;20249;-73
2022/04/29 06:23:40;;;;;;;29.93;11.07;;;10.90;90.30;;;;;;21083419;28;20242;-74
2022/04/29 06:33:42;;;;;;;25.27;10.67;;;11.30;90.20;;;;;;21085656;28;20241;-74
2022/04/29 06:43:44;;;;;;;14.60;10.47;;;11.50;89.80;;;;;;21085603;28;20574;-74
2022/04/29 06:53:46;;;;;;;15.90;10.60;;;11.80;89.10;;;;;;21086590;28;20562;-76
2022/04/29 07:03:48;;;;;;;16.60;10.50;;;12.50;88.20;;;;;;21085511;28;20212;-75
2022/04/29 07:13:51;;;;;;;16.03;11.23;;;12.80;86.90;;;;;;21084059;28;20758;-75
2022/04/29 07:23:53;;;;;;;15.70;11.07;;;13.00;86.50;;;;;;21065000;28;20230;-76
2022/04/29 07:46:34;;;;;;;15.87;10.90;;;13.90;83.10;;;;;;21243746;28;20226;-75
2022/04/29 07:56:37;;;;;;;13.73;10.47;;;13.90;83.30;;;;;;21242288;28;20688;-74
2022/04/29 08:06:39;;;;;;;16.23;10.97;;;14.80;80.10;;;;;;21244533;28;20237;-75
2022/04/29 08:17:02;;;;;;;16.47;10.30;;;15.30;78.70;;;;;;21236382;28;20659;-75
2022/04/29 08:27:04;;;;;;;14.23;10.70;;;15.70;77.90;;;;;;21210730;27;20706;-73
2022/04/29 08:37:06;;;;;;;15.50;11.00;;;16.40;75.60;;;;;;21233105;28;20217;-74
2022/04/29 08:47:08;;;;;;;16.57;10.40;;;16.50;75.10;;;;;;21145557;28;20233;-73
2022/04/29 09:07:50;;;;;;;16.33;10.03;;;17.30;70.20;;;;;;21176573;28;20240;-73
2022/04/29 09:17:53;;;;;;;14.43;10.17;;;17.50;69.30;;;;;;21174881;28;20279;-74
2022/04/29 09:27:59;;;;;;;16.77;10.60;;;17.80;68.00;;;;;;21174614;28;20604;-75
2022/04/29 09:48:26;;;;;;;15.17;10.13;;;17.60;67.40;;;;;;21171614;28;20310;-74
2022/04/29 09:58:27;;;;;;;15.73;11.63;;;17.60;67.70;;;;;;21169418;28;20271;-73
2022/04/29 10:08:31;;;;;;;12.87;9.00;;;18.30;64.60;;;;;;21149632;28;20268;-74
2022/04/29 10:29:02;;;;;;;10.03;6.90;;;18.60;60.90;;;;;;21158657;28;20284;-75
2022/04/29 10:39:04;;;;;;;7.67;5.57;;;18.70;59.60;;;;;;21166635;28;20231;-73
2022/04/29 10:49:27;;;;;;;7.47;5.50;;;19.10;58.10;;;;;;21166489;28;20240;-75
2022/04/29 10:59:51;;;;;;;9.27;5.40;;;19.70;53.60;;;;;;21165612;28;20212;-74
2022/04/29 11:09:53;;;;;;;4.90;4.27;;;19.70;53.70;;;;;;21163561;28;20233;-74
2022/04/29 11:20:15;;;;;;;6.50;4.73;;;20.00;50.30;;;;;;21164221;28;20652;-73
2022/04/29 11:30:18;;;;;;;6.27;5.13;;;20.10;50.90;;;;;;21164629;28;20587;-73
2022/04/29 11:40:19;;;;;;;6.50;4.27;;;20.20;48.10;;;;;;21146703;28;20572;-73
2022/04/29 11:50:32;;;;;;;8.43;3.80;;;20.10;47.10;;;;;;21160729;28;20286;-74
2022/04/29 12:00:35;;;;;;;9.27;3.63;;;20.70;45.90;;;;;;21143115;28;20571;-73
2022/04/29 12:10:36;;;;;;;6.63;3.50;;;20.80;46.40;;;;;;21162178;28;20719;-74
2022/04/29 12:20:40;;;;;;;4.30;3.50;;;21.70;44.60;;;;;;21172572;28;20206;-74
2022/04/29 12:41:27;;;;;;;4.90;4.33;;;21.80;44.00;;;;;;21177888;28;20209;-75
2022/04/29 12:51:32;;;;;;;5.33;3.43;;;21.90;43.40;;;;;;21180009;28;20237;-74
2022/04/29 13:01:38;;;;;;;36.70;22.07;;;22.00;42.70;;;;;;21174176;28;20600;-74
2022/04/29 13:11:43;;;;;;;5.00;4.23;;;22.00;43.20;;;;;;21173961;28;20237;-73
2022/04/29 13:21:45;;;;;;;10.90;3.83;;;22.00;43.00;;;;;;21176223;28;20210;-73
2022/04/29 13:31:47;;;;;;;19.13;4.00;;;22.30;42.60;;;;;;21180665;28;20241;-75
2022/04/29 13:41:49;;;;;;;7.60;4.30;;;22.30;43.10;;;;;;21172608;28;20254;-75
2022/04/29 13:51:50;;;;;;;4.40;4.00;;;22.50;42.60;;;;;;21171392;28;20238;-74
2022/04/29 14:01:52;;;;;;;5.47;3.83;;;21.80;41.90;;;;;;21152232;28;20202;-73
2022/04/29 14:11:54;;;;;;;9.57;6.50;;;21.80;42.50;;;;;;21167381;28;20236;-73
2022/04/29 14:21:56;;;;;;;6.37;4.20;;;22.20;42.60;;;;;;21166555;28;20606;-75
2022/04/29 14:31:58;;;;;;;7.57;4.93;;;21.30;42.60;;;;;;21157078;27;20245;-75
2022/04/29 14:42:00;;;;;;;7.03;4.53;;;21.30;43.30;;;;;;21147021;28;20210;-76
2022/04/29 14:52:02;;;;;;;5.13;4.00;;;21.00;43.60;;;;;;21166976;28;20699;-73
2022/04/29 15:02:04;;;;;;;5.73;4.13;;;20.70;43.50;;;;;;21164970;28;20238;-75
2022/04/29 15:22:46;;;;;;;5.40;3.90;;;20.70;43.70;;;;;;21163856;28;20202;-74
2022/04/29 15:32:48;;;;;;;4.13;3.50;;;21.40;44.20;;;;;;21162319;28;20237;-75
2022/04/29 15:42:50;;;;;;;4.03;3.63;;;23.40;43.50;;;;;;21164465;28;20233;-75
2022/04/29 15:52:52;;;;;;;4.97;3.80;;;23.40;44.00;;;;;;21172873;28;20229;-78
2022/04/29 16:02:53;;;;;;;6.17;3.77;;;23.70;43.00;;;;;;21179535;28;20576;-79
2022/04/29 16:12:56;;;;;;;10.00;3.60;;;22.70;42.70;;;;;;21178043;28;20229;-74
2022/04/29 16:33:19;;;;;;;4.80;3.60;;;21.80;42.80;;;;;;21171109;28;20245;-72
2022/04/29 16:43:21;;;;;;;4.77;3.40;;;21.20;43.20;;;;;;21168789;28;20522;-71
2022/04/29 16:53:23;;;;;;;4.10;3.43;;;20.60;43.30;;;;;;21174698;28;20286;-77
2022/04/29 17:03:26;;;;;;;6.47;3.73;;;20.30;43.90;;;;;;21172129;28;20218;-74
2022/04/29 17:13:30;;;;;;;4.60;3.60;;;19.80;44.40;;;;;;21172707;28;20272;-72
2022/04/29 17:23:32;;;;;;;7.77;3.97;;;19.70;45.00;;;;;;21172012;28;20206;-74
2022/04/29 17:33:35;;;;;;;9.00;4.70;;;19.40;45.70;;;;;;21173110;28;20245;-73
2022/04/29 17:43:36;;;;;;;4.80;3.73;;;19.30;46.90;;;;;;21170127;28;20215;-69
2022/04/29 17:53:38;;;;;;;6.03;4.03;;;19.10;47.70;;;;;;21169782;28;20718;-73
2022/04/29 18:03:40;;;;;;;5.73;3.87;;;18.80;48.10;;;;;;21168263;28;20670;-73
2022/04/29 18:13:42;;;;;;;7.23;5.10;;;18.70;48.20;;;;;;21146422;28;20223;-70
2022/04/29 18:23:46;;;;;;;8.60;4.57;;;18.60;49.20;;;;;;21163001;28;20199;-72
2022/04/29 18:33:48;;;;;;;11.10;5.60;;;18.40;50.00;;;;;;21160022;28;20247;-73
2022/04/29 18:43:49;;;;;;;10.00;5.00;;;18.10;51.00;;;;;;21164461;28;20217;-72
2022/04/29 18:53:51;;;;;;;9.17;5.50;;;17.60;53.80;;;;;;21162886;28;20286;-73
2022/04/29 19:03:53;;;;;;;10.77;5.23;;;17.50;54.50;;;;;;21164025;28;20220;-71
2022/04/29 19:13:54;;;;;;;15.83;8.23;;;17.40;55.80;;;;;;21161205;28;20240;-72
2022/04/29 19:23:56;;;;;;;12.60;7.73;;;17.20;56.20;;;;;;21143599;28;20575;-71
2022/04/29 19:33:58;;;;;;;10.50;5.37;;;17.10;56.80;;;;;;21178137;28;20245;-72
2022/04/29 19:44:00;;;;;;;10.83;6.80;;;16.90;58.50;;;;;;21159241;28;20208;-71
2022/04/29 19:54:02;;;;;;;10.07;5.97;;;16.80;58.60;;;;;;21140894;28;20237;-71
2022/04/29 20:04:08;;;;;;;7.60;6.00;;;16.70;59.20;;;;;;21157546;28;20690;-70
2022/04/29 20:14:11;;;;;;;10.43;6.70;;;16.50;60.00;;;;;;21157616;28;20327;-70
2022/04/29 20:24:14;;;;;;;11.40;8.70;;;16.30;61.50;;;;;;21157220;28;20208;-73
2022/04/29 20:34:16;;;;;;;8.60;6.73;;;16.20;62.20;;;;;;21149561;28;20249;-71
2022/04/29 20:44:18;;;;;;;12.07;6.43;;;16.00;63.10;;;;;;21153962;28;20661;-74
2022/04/29 20:54:20;;;;;;;8.77;6.50;;;15.80;64.40;;;;;;21171366;28;20597;-72
2022/04/29 21:04:21;;;;;;;9.87;6.90;;;15.50;65.50;;;;;;21170225;28;20200;-72
2022/04/29 21:14:23;;;;;;;8.80;6.73;;;15.60;66.30;;;;;;21171218;28;20840;-69
2022/04/29 21:24:25;;;;;;;11.63;8.10;;;15.40;66.90;;;;;;21171013;28;20202;-69
2022/04/29 21:34:27;;;;;;;11.17;8.00;;;15.50;68.20;;;;;;21170046;28;20286;-69
2022/04/29 21:44:28;;;;;;;8.80;6.90;;;15.50;69.20;;;;;;21169937;28;20740;-71
2022/04/29 21:54:31;;;;;;;10.37;8.77;;;15.40;68.70;;;;;;21170031;28;20239;-71
2022/04/29 22:04:34;;;;;;;17.30;9.23;;;15.40;69.40;;;;;;21169038;28;20209;-71
2022/04/29 22:14:35;;;;;;;11.87;8.97;;;15.30;70.40;;;;;;21167349;28;20247;-71
2022/04/29 22:24:38;;;;;;;10.43;8.40;;;15.20;71.10;;;;;;21167065;28;20209;-71
2022/04/29 22:34:41;;;;;;;13.57;8.80;;;15.20;71.80;;;;;;21167141;28;20252;-71
2022/04/29 22:44:43;;;;;;;11.23;8.73;;;15.20;72.60;;;;;;21165534;28;20228;-70
2022/04/29 22:54:46;;;;;;;11.90;8.30;;;15.10;73.10;;;;;;21165200;28;20237;-71
2022/04/29 23:04:48;;;;;;;9.07;8.03;;;15.20;72.50;;;;;;21163614;28;20657;-69
2022/04/29 23:14:52;;;;;;;8.13;6.53;;;15.30;70.60;;;;;;21163345;28;20307;-69
2022/04/29 23:24:54;;;;;;;8.63;6.30;;;15.40;69.70;;;;;;21163659;28;20210;-71
2022/04/29 23:34:56;;;;;;;7.73;6.47;;;15.50;68.80;;;;;;21163370;28;20236;-70
2022/04/29 23:44:58;;;;;;;8.83;6.27;;;15.60;66.00;;;;;;21162223;28;20625;-70
2022/04/29 23:55:00;;;;;;;9.73;7.27;;;15.60;65.90;;;;;;21162044;28;20639;-70
